Portada
METAR-TAF:

METAR-TAF

Aeropuertos :

Gerona, España

Aeropuerto de Gerona

latitud: 41-54N, longitud: 002-46E, altitud: 143 m

Observación

El informe se hizo hace 10 minutos, a las 16:30 UTC
Viento 12 kt del sur
Temperatura 25°C
Humedad 44%
Presión 1018 hPa
Visibilidad 10 km o más
sin nubes por debajo de 1500 m y sin presencia de cumulonimbus.

METAR: LEGE 281630Z 19012KT CAVOK 25/12 Q1018

Hora: 18:40 (16:40 UTC)

Pronóstico

El informe se hizo hace 5 horas y 40 minutos, a las 11:00 UTC
Pronóstico válido del 28 a las 12 UTC al 29 a las 12 UTC
Viento 11 kt del sur
Visibilidad 10 km o más
Escasas nubes a una altura de 3000 ft
Evolucionando progresivamente
del 28 a las 18 UTC al 28 a las 21 UTC
Viento 4 kt con dirección variable
Evolucionando progresivamente
del 29 a las 09 UTC al 29 a las 11 UTC
Viento 10 kt del sur

TAF: LEGE 281100Z 2812/2912 18011KT 9999 FEW030 TX28/2813Z TN13/2906Z BECMG 2818/2821 VRB04KT BECMG 2909/2911 18010KT

Observaciones y pronósticos meteorológicos de más de 4000 aeropuertos (mensajes METAR y TAF).

Los puntos amarillos y rojos representan las estaciones disponibles.

Ponga el ratón en el punto deseado para ver el nombre de la estación.

Haga clic para ver las observaciones y los pronósticos meteorológicos.

Para cambiar el mapa : haga clic en los botones verdes con una cruz de color negro para hacer un zoom, en el botón verde con un guión para alejar o en las flechas verdes para mapas adyacentes.


METAR-TAF: